Rock Creek, California
Current Conditions -  °F | °C
As of 1:55 AM on Sunday 25 Jan 2015 (Local Time) from KCIC Reporting Station
Clear Clear  
Wind Chill: 45°   Ceiling: Unl
Heat Index: 45°   Visibility: 10mi
Dew Point: 45°   Wind: 3mph
Humidity: 100%   Direction: 140°SE
Pressure: 30.2"   Gusts: NA
Location:  39.9071°N, 121.345°W
Report Text: KCIC 250955Z AUTO 14003KT 10SM CLR 07/07 A3020 RMK AO1
Loading
Personal Weather Stations






























Interactive Weather Map New forecast layout! Learn more

10-Day Weather Forecast

Advertisements
Track Severe Weather on mobile